createdAt,value
2024-03-16T00:00:59.225Z,4.35
2024-03-16T00:03:47.606Z,4.28
2024-03-16T00:06:16.057Z,4.22
2024-03-16T00:08:44.809Z,4.18
2024-03-16T00:11:13.126Z,4.14
2024-03-16T00:13:41.600Z,4.12
2024-03-16T00:16:09.838Z,4.12
2024-03-16T00:18:38.491Z,4.12
2024-03-16T00:21:07.582Z,4.14
2024-03-16T00:23:36.098Z,4.16
2024-03-16T00:26:04.466Z,4.20
2024-03-16T00:28:34.578Z,4.25
2024-03-16T00:31:05.220Z,4.30
2024-03-16T00:33:34.412Z,4.37
2024-03-16T00:36:02.552Z,4.42
2024-03-16T00:38:30.828Z,4.46
2024-03-16T00:40:59.263Z,4.49
2024-03-16T00:43:28.107Z,4.49
2024-03-16T00:45:56.411Z,4.49
2024-03-16T00:48:24.811Z,4.48
2024-03-16T00:50:53.031Z,4.47
2024-03-16T00:53:21.628Z,4.44
2024-03-16T00:55:50.103Z,4.40
2024-03-16T00:58:18.319Z,4.33
2024-03-16T01:00:46.601Z,4.27
2024-03-16T01:03:14.832Z,4.22
2024-03-16T01:05:43.113Z,4.17
2024-03-16T01:08:11.385Z,4.12
2024-03-16T01:10:40.309Z,4.06
2024-03-16T01:13:08.777Z,4.06
2024-03-16T01:15:37.158Z,4.07
2024-03-16T01:18:05.336Z,4.10
2024-03-16T01:20:33.496Z,4.14
2024-03-16T01:23:04.235Z,4.18
2024-03-16T01:25:32.523Z,4.20
2024-03-16T01:28:00.648Z,4.24
2024-03-16T01:30:28.921Z,4.24
2024-03-16T01:32:57.352Z,4.24
2024-03-16T01:35:25.518Z,4.25
2024-03-16T01:37:54.096Z,4.26
2024-03-16T01:40:26.138Z,4.25
2024-03-16T01:42:54.988Z,4.23
2024-03-16T01:45:23.432Z,4.19
2024-03-16T01:47:54.057Z,4.16
2024-03-16T01:50:23.173Z,4.15
2024-03-16T01:52:51.660Z,4.12
2024-03-16T01:55:21.053Z,4.10
2024-03-16T01:57:49.775Z,4.07
2024-03-16T02:00:19.036Z,4.05
2024-03-16T02:02:47.314Z,4.04
2024-03-16T02:05:15.802Z,4.02
2024-03-16T02:07:45.596Z,4.01
2024-03-16T02:10:13.847Z,3.99
2024-03-16T02:12:43.408Z,3.98
2024-03-16T02:15:12.396Z,3.99
2024-03-16T02:17:41.013Z,4.00
2024-03-16T02:20:15.504Z,4.04
2024-03-16T02:22:44.287Z,4.09
2024-03-16T02:25:12.581Z,4.15
2024-03-16T02:27:41.434Z,4.19
2024-03-16T02:30:11.885Z,4.24
2024-03-16T02:32:40.416Z,4.26
2024-03-16T02:35:11.716Z,4.28
2024-03-16T02:37:40.018Z,4.29
2024-03-16T02:40:12.972Z,4.28
2024-03-16T02:42:44.980Z,4.27
2024-03-16T02:45:13.437Z,4.26
2024-03-16T02:47:41.621Z,4.24
2024-03-16T02:50:11.724Z,4.21
2024-03-16T02:52:40.632Z,4.18
2024-03-16T02:55:09.573Z,4.17
2024-03-16T02:57:37.854Z,4.16
2024-03-16T03:00:12.777Z,4.14
2024-03-16T03:02:41.512Z,4.12
2024-03-16T03:05:12.821Z,4.09
2024-03-16T03:07:41.239Z,4.04
2024-03-16T03:10:10.262Z,3.98
2024-03-16T03:12:40.491Z,3.96
2024-03-16T03:15:10.713Z,3.96
2024-03-16T03:17:40.656Z,3.98
2024-03-16T03:20:10.197Z,4.00
2024-03-16T03:22:38.716Z,4.04
2024-03-16T03:25:07.683Z,4.12
2024-03-16T03:27:36.137Z,4.19
2024-03-16T03:30:04.768Z,4.21
2024-03-16T03:32:34.058Z,4.23
2024-03-16T03:35:02.430Z,4.23
2024-03-16T03:37:30.811Z,4.24
2024-03-16T03:39:59.545Z,4.22
2024-03-16T03:42:30.921Z,4.21
2024-03-16T03:45:12.661Z,4.17
2024-03-16T03:48:04.616Z,4.14
2024-03-16T03:50:39.981Z,4.09
2024-03-16T03:53:08.195Z,4.03
2024-03-16T03:55:36.300Z,3.98
2024-03-16T03:58:04.809Z,3.93
2024-03-16T04:00:34.351Z,3.87
2024-03-16T04:03:05.586Z,3.82
2024-03-16T04:05:34.725Z,3.77
2024-03-16T04:08:03.800Z,3.72
2024-03-16T04:10:32.381Z,3.67
2024-03-16T04:13:00.596Z,3.64
2024-03-16T04:15:29.027Z,3.61
2024-03-16T04:17:57.483Z,3.58
2024-03-16T04:20:25.706Z,3.55
2024-03-16T04:22:54.443Z,3.52
2024-03-16T04:25:23.211Z,3.47
2024-03-16T04:27:51.801Z,3.41
2024-03-16T04:30:20.562Z,3.36
2024-03-16T04:32:48.747Z,3.30
2024-03-16T04:35:17.207Z,3.27
2024-03-16T04:37:46.308Z,3.24
2024-03-16T04:40:14.792Z,3.23
2024-03-16T04:42:43.606Z,3.23
2024-03-16T04:45:11.950Z,3.24
2024-03-16T04:47:40.185Z,3.25
2024-03-16T04:50:08.953Z,3.28
2024-03-16T04:52:37.200Z,3.32
2024-03-16T04:55:06.006Z,3.35
2024-03-16T04:57:34.194Z,3.40
2024-03-16T05:00:02.542Z,3.45
2024-03-16T05:02:32.017Z,3.49
2024-03-16T05:05:00.268Z,3.49
2024-03-16T05:07:28.577Z,3.44
2024-03-16T05:09:56.916Z,3.42
2024-03-16T05:12:26.408Z,3.38
2024-03-16T05:14:54.653Z,3.33
2024-03-16T05:17:22.796Z,3.28
2024-03-16T05:19:53.362Z,3.23
2024-03-16T05:22:21.712Z,3.19
2024-03-16T05:24:50.156Z,3.15
2024-03-16T05:27:18.512Z,3.11
2024-03-16T05:29:46.675Z,3.06
2024-03-16T05:32:15.684Z,3.04
2024-03-16T05:34:43.788Z,3.01
2024-03-16T05:37:12.077Z,3.00
2024-03-16T05:39:40.333Z,3.00
2024-03-16T05:42:08.691Z,3.00
2024-03-16T05:44:36.857Z,3.00
2024-03-16T05:47:05.036Z,3.02
2024-03-16T05:49:33.730Z,3.03
2024-03-16T05:52:02.161Z,3.05
2024-03-16T05:54:35.630Z,3.06
2024-03-16T05:57:05.233Z,3.07
2024-03-16T05:59:34.864Z,3.09
2024-03-16T06:02:03.282Z,3.13
2024-03-16T06:04:31.784Z,3.16
2024-03-16T06:07:00.135Z,3.20
2024-03-16T06:09:28.661Z,3.24
2024-03-16T06:11:57.019Z,3.31
2024-03-16T06:14:25.608Z,3.38
2024-03-16T06:16:53.804Z,3.47
2024-03-16T06:19:22.174Z,3.57
2024-03-16T06:21:50.452Z,3.69
2024-03-16T06:24:18.768Z,3.79
2024-03-16T06:26:53.891Z,3.91
2024-03-16T06:29:27.489Z,4.05
2024-03-16T06:32:06.525Z,4.18
2024-03-16T06:34:35.479Z,4.29
2024-03-16T06:37:04.597Z,4.40
2024-03-16T06:39:33.020Z,4.53
2024-03-16T06:42:01.345Z,4.66
2024-03-16T06:44:29.622Z,4.78
2024-03-16T06:46:57.693Z,4.89
2024-03-16T06:49:26.118Z,4.98
2024-03-16T06:51:54.382Z,5.07
2024-03-16T06:54:22.721Z,5.15
2024-03-16T06:56:50.911Z,5.23
2024-03-16T06:59:19.996Z,5.29
2024-03-16T07:01:48.208Z,5.35
2024-03-16T07:04:16.932Z,5.42
2024-03-16T07:06:45.342Z,5.49
2024-03-16T07:09:14.854Z,5.53
2024-03-16T07:11:47.799Z,5.57
2024-03-16T07:14:17.137Z,5.63
2024-03-16T07:16:45.326Z,5.68
2024-03-16T07:19:13.507Z,5.74
2024-03-16T07:21:41.901Z,5.79
2024-03-16T07:24:11.345Z,5.84
2024-03-16T07:26:39.651Z,5.91
2024-03-16T07:29:07.828Z,5.98
2024-03-16T07:31:36.758Z,6.03
2024-03-16T07:34:05.252Z,6.09
2024-03-16T07:36:33.433Z,6.18
2024-03-16T07:39:01.952Z,6.25
2024-03-16T07:41:30.747Z,6.33
2024-03-16T07:43:58.927Z,6.44
2024-03-16T07:46:27.300Z,6.56
2024-03-16T07:48:57.926Z,6.67
2024-03-16T07:51:32.841Z,6.79
2024-03-16T07:54:01.793Z,6.92
2024-03-16T07:56:29.932Z,7.03
2024-03-16T07:58:58.988Z,7.15
2024-03-16T08:01:27.447Z,7.28
2024-03-16T08:03:55.663Z,7.40
2024-03-16T08:06:23.876Z,7.52
2024-03-16T08:08:52.344Z,7.65
2024-03-16T08:11:23.443Z,7.79
2024-03-16T08:13:51.871Z,7.93
2024-03-16T08:16:20.129Z,8.07
2024-03-16T08:18:48.534Z,8.20
2024-03-16T08:21:17.601Z,8.32
2024-03-16T08:23:45.828Z,8.42
2024-03-16T08:26:14.260Z,8.55
2024-03-16T08:28:42.562Z,8.69
2024-03-16T08:31:10.866Z,8.78
2024-03-16T08:33:39.235Z,8.84
2024-03-16T08:36:08.012Z,8.90
2024-03-16T08:38:37.223Z,9.02
2024-03-16T08:41:06.278Z,9.14
2024-03-16T08:43:34.840Z,9.26
2024-03-16T08:46:07.443Z,9.39
2024-03-16T08:48:36.080Z,9.50
2024-03-16T08:51:05.977Z,9.60
2024-03-16T08:53:34.344Z,9.74
2024-03-16T08:56:08.031Z,9.89
2024-03-16T08:58:36.598Z,10.04
2024-03-16T09:01:05.009Z,10.14
2024-03-16T09:03:33.265Z,10.23
2024-03-16T09:06:02.897Z,10.27
2024-03-16T09:08:32.408Z,10.34
2024-03-16T09:11:00.746Z,10.41
2024-03-16T09:13:30.995Z,10.53
2024-03-16T09:15:59.422Z,10.68
2024-03-16T09:18:27.774Z,10.80
2024-03-16T09:20:56.054Z,10.91
2024-03-16T09:23:24.430Z,11.06
2024-03-16T09:25:57.287Z,11.22
2024-03-16T09:28:25.713Z,11.38
2024-03-16T09:30:56.566Z,11.41
2024-03-16T09:33:25.565Z,11.44
2024-03-16T09:35:53.970Z,11.55
2024-03-16T09:38:24.531Z,11.66
2024-03-16T09:40:53.766Z,11.79
2024-03-16T09:43:21.939Z,11.93
2024-03-16T09:45:50.708Z,12.01
2024-03-16T09:48:19.180Z,12.15
2024-03-16T09:50:49.166Z,12.36
2024-03-16T09:53:26.941Z,12.55
2024-03-16T09:55:57.804Z,12.72
2024-03-16T09:58:26.925Z,12.83
2024-03-16T10:00:56.123Z,12.91
2024-03-16T10:03:26.061Z,12.99
2024-03-16T10:05:54.545Z,13.06
2024-03-16T10:08:23.438Z,13.11
2024-03-16T10:10:51.823Z,12.97
2024-03-16T10:13:20.080Z,12.92
2024-03-16T10:15:48.429Z,12.90
2024-03-16T10:18:17.834Z,12.90
2024-03-16T10:20:46.148Z,12.84
2024-03-16T10:23:20.633Z,12.78
2024-03-16T10:25:49.717Z,12.77
2024-03-16T10:28:18.450Z,12.79
2024-03-16T10:30:47.172Z,12.76
2024-03-16T10:33:19.506Z,12.67
2024-03-16T10:35:47.787Z,12.76
2024-03-16T10:38:20.307Z,12.88
2024-03-16T10:40:50.748Z,12.82
2024-03-16T10:43:18.976Z,12.76
2024-03-16T10:45:48.787Z,12.82
2024-03-16T10:48:16.959Z,12.90
2024-03-16T10:50:48.409Z,12.97
2024-03-16T10:53:18.926Z,12.94
2024-03-16T10:55:48.754Z,12.88
2024-03-16T10:58:23.837Z,12.75
2024-03-16T11:01:04.331Z,12.67
2024-03-16T11:03:32.850Z,12.61
2024-03-16T11:06:12.279Z,12.63
2024-03-16T11:08:46.331Z,12.67
2024-03-16T11:11:20.101Z,12.74
2024-03-16T11:14:00.193Z,12.87
2024-03-16T11:16:34.263Z,13.08
2024-03-16T11:19:10.871Z,13.27
2024-03-16T11:21:39.943Z,13.32
2024-03-16T11:24:15.001Z,13.59
2024-03-16T11:26:47.644Z,13.89
2024-03-16T11:29:22.656Z,14.09
2024-03-16T11:31:57.948Z,14.33
2024-03-16T11:34:27.148Z,14.39
2024-03-16T11:36:56.958Z,14.47
2024-03-16T11:39:26.977Z,14.59
2024-03-16T11:41:57.207Z,14.79
2024-03-16T11:44:26.071Z,14.84
2024-03-16T11:46:55.086Z,14.82
2024-03-16T11:49:23.160Z,14.69
2024-03-16T11:51:59.635Z,14.52
2024-03-16T11:54:28.295Z,14.56
2024-03-16T11:56:58.623Z,14.41
2024-03-16T11:59:27.622Z,14.26
2024-03-16T12:01:56.834Z,14.27
2024-03-16T12:04:27.386Z,14.19
2024-03-16T12:06:58.842Z,14.07
2024-03-16T12:09:35.615Z,14.09
2024-03-16T12:12:09.141Z,14.13
2024-03-16T12:14:43.158Z,14.16
2024-03-16T12:17:13.063Z,14.15
2024-03-16T12:19:41.339Z,14.04
2024-03-16T12:22:16.452Z,13.88
2024-03-16T12:24:44.809Z,13.99
2024-03-16T12:27:13.579Z,14.03
2024-03-16T12:29:44.612Z,14.10
2024-03-16T12:32:13.010Z,14.12
2024-03-16T12:34:41.184Z,14.19
2024-03-16T12:37:09.355Z,14.22
2024-03-16T12:39:38.069Z,14.31
2024-03-16T12:42:07.552Z,14.33
2024-03-16T12:44:35.829Z,14.43
2024-03-16T12:47:04.207Z,14.45
2024-03-16T12:49:33.004Z,14.50
2024-03-16T12:52:01.385Z,14.57
2024-03-16T12:54:30.211Z,14.51
2024-03-16T12:56:59.591Z,14.66
2024-03-16T12:59:27.756Z,14.80
2024-03-16T13:01:57.054Z,14.88
2024-03-16T13:04:25.225Z,14.86
2024-03-16T13:06:53.402Z,14.63
2024-03-16T13:09:21.836Z,14.61
2024-03-16T13:11:50.786Z,14.66
2024-03-16T13:14:19.055Z,14.60
2024-03-16T13:16:47.333Z,14.72
2024-03-16T13:19:15.917Z,14.89
2024-03-16T13:21:47.487Z,15.07
2024-03-16T13:24:15.744Z,15.25
2024-03-16T13:26:44.127Z,15.40
2024-03-16T13:29:12.507Z,15.56
2024-03-16T13:31:40.783Z,15.75
2024-03-16T13:34:11.720Z,15.90
2024-03-16T13:36:40.438Z,16.01
2024-03-16T13:39:09.095Z,16.02
2024-03-16T13:41:37.379Z,16.06
2024-03-16T13:44:05.861Z,16.19
2024-03-16T13:46:34.321Z,16.43
2024-03-16T13:49:07.230Z,16.50
2024-03-16T13:51:35.501Z,16.59
2024-03-16T13:54:04.300Z,16.82
2024-03-16T13:56:35.230Z,17.01
2024-03-16T13:59:03.513Z,17.06
2024-03-16T14:01:31.682Z,16.80
2024-03-16T14:04:02.785Z,16.80
2024-03-16T14:06:30.917Z,16.93
2024-03-16T14:08:59.176Z,17.02
2024-03-16T14:11:27.593Z,17.09
2024-03-16T14:13:57.285Z,17.22
2024-03-16T14:16:25.749Z,17.38
2024-03-16T14:18:55.624Z,17.42
2024-03-16T14:21:23.840Z,17.35
2024-03-16T14:23:52.121Z,17.27
2024-03-16T14:26:20.312Z,17.31
2024-03-16T14:28:50.527Z,17.37
2024-03-16T14:31:18.904Z,17.48
2024-03-16T14:33:47.928Z,17.57
2024-03-16T14:36:18.523Z,17.43
2024-03-16T14:38:47.522Z,17.40
2024-03-16T14:41:16.788Z,17.54
2024-03-16T14:43:45.255Z,17.57
2024-03-16T14:46:13.890Z,17.55
2024-03-16T14:48:42.179Z,17.49
2024-03-16T14:51:10.643Z,17.43
2024-03-16T14:53:38.844Z,17.25
2024-03-16T14:56:07.041Z,17.26
2024-03-16T14:58:35.172Z,17.33
2024-03-16T15:01:03.974Z,17.57
2024-03-16T15:03:32.760Z,17.80
2024-03-16T15:06:01.333Z,18.02
2024-03-16T15:08:29.520Z,18.02
2024-03-16T15:10:58.310Z,17.87
2024-03-16T15:13:26.776Z,17.70
2024-03-16T15:15:54.961Z,17.60
2024-03-16T15:18:23.756Z,17.46
2024-03-16T15:20:53.469Z,17.43
2024-03-16T15:23:25.762Z,17.32
2024-03-16T15:26:05.993Z,17.10
2024-03-16T15:28:36.005Z,16.87
2024-03-16T15:31:04.794Z,16.87
2024-03-16T15:33:33.693Z,16.77
2024-03-16T15:36:01.986Z,16.64
2024-03-16T15:38:30.149Z,16.46
2024-03-16T15:40:58.686Z,16.31
2024-03-16T15:43:27.103Z,16.14
2024-03-16T15:45:55.278Z,15.84
2024-03-16T15:48:24.068Z,15.48
2024-03-16T15:50:53.068Z,15.08
2024-03-16T15:53:21.237Z,14.86
2024-03-16T15:55:51.973Z,14.74
2024-03-16T15:58:22.706Z,14.47
2024-03-16T16:00:51.092Z,14.17
2024-03-16T16:03:19.239Z,14.02
2024-03-16T16:05:47.541Z,13.89
2024-03-16T16:08:15.833Z,13.76
2024-03-16T16:10:45.627Z,13.59
2024-03-16T16:13:20.465Z,13.40
2024-03-16T16:15:48.845Z,13.17
2024-03-16T16:18:17.644Z,12.89
2024-03-16T16:20:46.535Z,12.70
2024-03-16T16:23:14.712Z,12.54
2024-03-16T16:25:42.897Z,12.36
2024-03-16T16:28:12.992Z,12.22
2024-03-16T16:30:41.620Z,12.05
2024-03-16T16:33:09.858Z,11.85
2024-03-16T16:35:38.493Z,11.74
2024-03-16T16:38:06.721Z,11.61
2024-03-16T16:40:36.538Z,11.56
2024-03-16T16:43:05.845Z,11.52
2024-03-16T16:45:34.110Z,11.42
2024-03-16T16:48:02.610Z,11.36
2024-03-16T16:50:30.768Z,11.28
2024-03-16T16:52:58.837Z,11.20
2024-03-16T16:55:27.218Z,11.12
2024-03-16T16:57:55.598Z,11.06
2024-03-16T17:00:24.703Z,10.99
2024-03-16T17:02:53.107Z,10.92
2024-03-16T17:05:21.258Z,10.87
2024-03-16T17:07:50.244Z,10.81
2024-03-16T17:10:18.411Z,10.75
2024-03-16T17:12:48.915Z,10.70
2024-03-16T17:15:17.536Z,10.62
2024-03-16T17:17:46.352Z,10.54
2024-03-16T17:20:19.212Z,10.48
2024-03-16T17:22:47.389Z,10.42
2024-03-16T17:25:17.570Z,10.36
2024-03-16T17:27:47.751Z,10.29
2024-03-16T17:30:16.221Z,10.23
2024-03-16T17:32:44.964Z,10.15
2024-03-16T17:35:15.942Z,10.06
2024-03-16T17:37:44.731Z,9.97
2024-03-16T17:40:15.169Z,9.88
2024-03-16T17:42:43.444Z,9.83
2024-03-16T17:45:11.626Z,9.80
2024-03-16T17:47:41.940Z,9.76
2024-03-16T17:50:10.064Z,9.70
2024-03-16T17:52:38.391Z,9.65
2024-03-16T17:55:06.834Z,9.60
2024-03-16T17:57:35.666Z,9.57
2024-03-16T18:00:06.460Z,9.51
2024-03-16T18:02:34.880Z,9.48
2024-03-16T18:05:02.934Z,9.44
2024-03-16T18:07:31.228Z,9.43
2024-03-16T18:09:59.614Z,9.41
2024-03-16T18:12:27.792Z,9.38
2024-03-16T18:14:58.447Z,9.36
2024-03-16T18:17:26.614Z,9.33
2024-03-16T18:19:55.481Z,9.30
2024-03-16T18:22:23.761Z,9.25
2024-03-16T18:24:55.569Z,9.22
2024-03-16T18:27:24.105Z,9.19
2024-03-16T18:29:52.387Z,9.17
2024-03-16T18:32:23.948Z,9.10
2024-03-16T18:34:52.214Z,9.06
2024-03-16T18:37:20.290Z,9.03
2024-03-16T18:39:49.293Z,9.02
2024-03-16T18:42:17.456Z,9.02
2024-03-16T18:44:45.630Z,9.02
2024-03-16T18:47:14.008Z,9.01
2024-03-16T18:49:42.137Z,8.99
2024-03-16T18:52:12.233Z,8.99
2024-03-16T18:54:40.480Z,8.95
2024-03-16T18:57:10.495Z,8.93
2024-03-16T18:59:38.681Z,8.91
2024-03-16T19:02:07.054Z,8.90
2024-03-16T19:04:35.354Z,8.87
2024-03-16T19:07:03.846Z,8.84
2024-03-16T19:09:32.512Z,8.80
2024-03-16T19:12:01.091Z,8.77
2024-03-16T19:14:29.446Z,8.75
2024-03-16T19:16:58.476Z,8.74
2024-03-16T19:19:28.277Z,8.70
2024-03-16T19:21:57.304Z,8.67
2024-03-16T19:24:29.026Z,8.62
2024-03-16T19:26:57.219Z,8.58
2024-03-16T19:29:25.390Z,8.49
2024-03-16T19:31:53.543Z,8.43
2024-03-16T19:34:21.623Z,8.40
2024-03-16T19:36:49.802Z,8.37
2024-03-16T19:39:20.541Z,8.30
2024-03-16T19:41:48.811Z,8.28
2024-03-16T19:44:17.091Z,8.25
2024-03-16T19:46:45.162Z,8.24
2024-03-16T19:49:13.849Z,8.22
2024-03-16T19:51:42.336Z,8.20
2024-03-16T19:54:10.511Z,8.18
2024-03-16T19:56:39.507Z,8.16
2024-03-16T19:59:07.683Z,8.12
2024-03-16T20:01:35.861Z,8.10
2024-03-16T20:04:04.337Z,8.05
2024-03-16T20:06:32.484Z,8.03
2024-03-16T20:09:00.586Z,8.00
2024-03-16T20:11:28.964Z,7.98
2024-03-16T20:13:57.135Z,7.94
2024-03-16T20:16:25.311Z,7.91
2024-03-16T20:18:53.488Z,7.87
2024-03-16T20:21:21.680Z,7.84
2024-03-16T20:23:52.606Z,7.79
2024-03-16T20:26:24.580Z,7.76
2024-03-16T20:28:52.639Z,7.72
2024-03-16T20:31:20.812Z,7.68
2024-03-16T20:33:49.498Z,7.65
2024-03-16T20:36:17.680Z,7.62
2024-03-16T20:38:45.952Z,7.60
2024-03-16T20:41:20.910Z,7.57
2024-03-16T20:43:49.262Z,7.54
2024-03-16T20:46:17.958Z,7.50
2024-03-16T20:48:46.435Z,7.49
2024-03-16T20:51:14.610Z,7.45
2024-03-16T20:53:42.812Z,7.43
2024-03-16T20:56:11.883Z,7.40
2024-03-16T20:58:39.954Z,7.37
2024-03-16T21:01:11.201Z,7.34
2024-03-16T21:03:39.377Z,7.31
2024-03-16T21:06:07.906Z,7.31
2024-03-16T21:08:36.344Z,7.32
2024-03-16T21:11:05.435Z,7.35
2024-03-16T21:13:38.092Z,7.38
2024-03-16T21:16:06.394Z,7.42
2024-03-16T21:18:35.028Z,7.46
2024-03-16T21:21:03.166Z,7.49
2024-03-16T21:23:32.830Z,7.53
2024-03-16T21:26:01.451Z,7.56
2024-03-16T21:28:30.560Z,7.61
2024-03-16T21:30:58.768Z,7.64
2024-03-16T21:33:27.128Z,7.64
2024-03-16T21:35:55.767Z,7.64
2024-03-16T21:38:23.966Z,7.62
2024-03-16T21:40:52.141Z,7.59
2024-03-16T21:43:20.211Z,7.56
2024-03-16T21:45:50.240Z,7.52
2024-03-16T21:48:19.021Z,7.45
2024-03-16T21:50:48.053Z,7.43
2024-03-16T21:53:16.403Z,7.41
2024-03-16T21:55:44.571Z,7.39
2024-03-16T21:58:12.743Z,7.35
2024-03-16T22:00:41.432Z,7.34
2024-03-16T22:03:10.026Z,7.33
2024-03-16T22:05:38.907Z,7.28
2024-03-16T22:08:07.698Z,7.22
2024-03-16T22:10:35.771Z,7.20
2024-03-16T22:13:04.054Z,7.20
2024-03-16T22:15:32.552Z,7.20
2024-03-16T22:18:00.714Z,7.18
2024-03-16T22:20:29.092Z,7.15
2024-03-16T22:22:57.272Z,7.12
2024-03-16T22:25:26.375Z,7.10
2024-03-16T22:27:54.533Z,7.09
2024-03-16T22:30:23.116Z,7.07
2024-03-16T22:32:53.026Z,7.06
2024-03-16T22:35:21.205Z,7.01
2024-03-16T22:37:49.387Z,6.98
2024-03-16T22:40:17.578Z,6.94
2024-03-16T22:42:46.448Z,6.87
2024-03-16T22:45:19.529Z,6.85
2024-03-16T22:47:47.919Z,6.81
2024-03-16T22:50:16.094Z,6.80
2024-03-16T22:52:44.478Z,6.82
2024-03-16T22:55:13.523Z,6.87
2024-03-16T22:57:41.752Z,6.89
2024-03-16T23:00:20.093Z,6.90
2024-03-16T23:02:48.800Z,6.92
2024-03-16T23:05:17.239Z,6.95
2024-03-16T23:07:46.119Z,7.00
2024-03-16T23:10:14.294Z,7.06
2024-03-16T23:12:42.683Z,7.10
2024-03-16T23:15:10.987Z,7.13
2024-03-16T23:17:39.335Z,7.09
2024-03-16T23:20:09.640Z,7.03
2024-03-16T23:22:40.732Z,7.00
2024-03-16T23:25:14.054Z,7.01
2024-03-16T23:27:42.584Z,7.01
2024-03-16T23:30:12.828Z,7.02
2024-03-16T23:32:46.974Z,7.03
2024-03-16T23:35:15.502Z,7.06
2024-03-16T23:37:43.778Z,7.06
2024-03-16T23:40:14.589Z,7.06
2024-03-16T23:42:43.207Z,7.08
2024-03-16T23:45:11.477Z,7.09
2024-03-16T23:47:39.679Z,7.08
2024-03-16T23:50:09.068Z,7.08
2024-03-16T23:52:37.731Z,7.06
2024-03-16T23:55:06.490Z,7.00
2024-03-16T23:57:34.709Z,6.93
